sensor_id;sensor_type;location;lat;lon;timestamp;P1;durP1;ratioP1;P2;durP2;ratioP2
9914;SDS011;4996;48.746;9.174;2022-10-16T00:01:45;7.33;;;2.13;;
9914;SDS011;4996;48.746;9.174;2022-10-16T00:04:12;7.20;;;2.07;;
9914;SDS011;4996;48.746;9.174;2022-10-16T00:06:37;3.20;;;2.10;;
9914;SDS011;4996;48.746;9.174;2022-10-16T00:09:03;3.30;;;1.80;;
9914;SDS011;4996;48.746;9.174;2022-10-16T00:11:31;1.73;;;1.43;;
9914;SDS011;4996;48.746;9.174;2022-10-16T00:13:59;2.20;;;1.63;;
9914;SDS011;4996;48.746;9.174;2022-10-16T00:16:26;2.07;;;1.50;;
9914;SDS011;4996;48.746;9.174;2022-10-16T00:18:53;4.07;;;2.47;;
9914;SDS011;4996;48.746;9.174;2022-10-16T00:21:19;2.40;;;2.20;;
9914;SDS011;4996;48.746;9.174;2022-10-16T00:23:50;3.13;;;2.30;;
9914;SDS011;4996;48.746;9.174;2022-10-16T00:26:17;3.50;;;1.83;;
9914;SDS011;4996;48.746;9.174;2022-10-16T00:28:47;5.70;;;1.50;;
9914;SDS011;4996;48.746;9.174;2022-10-16T00:31:14;2.80;;;2.07;;
9914;SDS011;4996;48.746;9.174;2022-10-16T00:33:42;4.30;;;2.47;;
9914;SDS011;4996;48.746;9.174;2022-10-16T00:36:10;5.13;;;1.93;;
9914;SDS011;4996;48.746;9.174;2022-10-16T00:38:37;1.73;;;1.53;;
9914;SDS011;4996;48.746;9.174;2022-10-16T00:41:03;5.80;;;2.00;;
9914;SDS011;4996;48.746;9.174;2022-10-16T00:45:59;2.77;;;1.93;;
9914;SDS011;4996;48.746;9.174;2022-10-16T00:48:26;3.93;;;2.00;;
9914;SDS011;4996;48.746;9.174;2022-10-16T00:50:51;4.60;;;2.00;;
9914;SDS011;4996;48.746;9.174;2022-10-16T00:53:18;2.47;;;1.80;;
9914;SDS011;4996;48.746;9.174;2022-10-16T00:55:44;3.03;;;1.80;;
9914;SDS011;4996;48.746;9.174;2022-10-16T00:58:10;5.50;;;1.90;;
9914;SDS011;4996;48.746;9.174;2022-10-16T01:00:36;3.33;;;1.47;;
9914;SDS011;4996;48.746;9.174;2022-10-16T01:03:02;3.70;;;2.10;;
9914;SDS011;4996;48.746;9.174;2022-10-16T01:05:49;3.47;;;1.50;;
9914;SDS011;4996;48.746;9.174;2022-10-16T01:08:28;2.60;;;1.90;;
9914;SDS011;4996;48.746;9.174;2022-10-16T01:11:03;4.40;;;1.43;;
9914;SDS011;4996;48.746;9.174;2022-10-16T01:13:53;9.23;;;2.40;;
9914;SDS011;4996;48.746;9.174;2022-10-16T01:21:40;2.80;;;1.90;;
9914;SDS011;4996;48.746;9.174;2022-10-16T01:26:57;3.53;;;2.00;;
9914;SDS011;4996;48.746;9.174;2022-10-16T01:32:40;3.50;;;2.10;;
9914;SDS011;4996;48.746;9.174;2022-10-16T01:35:11;2.30;;;2.10;;
9914;SDS011;4996;48.746;9.174;2022-10-16T01:40:41;2.30;;;1.53;;
9914;SDS011;4996;48.746;9.174;2022-10-16T01:43:12;15.10;;;2.40;;
9914;SDS011;4996;48.746;9.174;2022-10-16T01:45:44;4.10;;;1.63;;
9914;SDS011;4996;48.746;9.174;2022-10-16T01:48:11;5.03;;;1.90;;
9914;SDS011;4996;48.746;9.174;2022-10-16T01:50:40;6.53;;;1.80;;
9914;SDS011;4996;48.746;9.174;2022-10-16T01:53:08;8.43;;;2.60;;
9914;SDS011;4996;48.746;9.174;2022-10-16T01:55:38;2.87;;;1.60;;
9914;SDS011;4996;48.746;9.174;2022-10-16T01:58:09;4.53;;;1.83;;
9914;SDS011;4996;48.746;9.174;2022-10-16T02:00:37;4.00;;;1.83;;
9914;SDS011;4996;48.746;9.174;2022-10-16T02:03:05;4.63;;;1.90;;
9914;SDS011;4996;48.746;9.174;2022-10-16T02:05:39;1.90;;;1.50;;
9914;SDS011;4996;48.746;9.174;2022-10-16T02:08:09;7.50;;;2.10;;
9914;SDS011;4996;48.746;9.174;2022-10-16T02:10:36;4.10;;;2.13;;
9914;SDS011;4996;48.746;9.174;2022-10-16T02:13:12;2.20;;;1.70;;
9914;SDS011;4996;48.746;9.174;2022-10-16T02:15:46;1.87;;;1.67;;
9914;SDS011;4996;48.746;9.174;2022-10-16T02:18:12;9.13;;;1.80;;
9914;SDS011;4996;48.746;9.174;2022-10-16T02:20:47;2.47;;;1.67;;
9914;SDS011;4996;48.746;9.174;2022-10-16T02:23:19;3.33;;;1.60;;
9914;SDS011;4996;48.746;9.174;2022-10-16T02:25:52;3.67;;;1.57;;
9914;SDS011;4996;48.746;9.174;2022-10-16T02:28:24;7.30;;;1.97;;
9914;SDS011;4996;48.746;9.174;2022-10-16T02:30:57;3.77;;;1.83;;
9914;SDS011;4996;48.746;9.174;2022-10-16T02:33:27;2.70;;;2.00;;
9914;SDS011;4996;48.746;9.174;2022-10-16T02:35:54;6.43;;;1.93;;
9914;SDS011;4996;48.746;9.174;2022-10-16T02:38:21;2.23;;;1.53;;
9914;SDS011;4996;48.746;9.174;2022-10-16T02:40:48;4.73;;;2.30;;
9914;SDS011;4996;48.746;9.174;2022-10-16T02:43:14;3.40;;;2.10;;
9914;SDS011;4996;48.746;9.174;2022-10-16T02:45:40;3.90;;;1.83;;
9914;SDS011;4996;48.746;9.174;2022-10-16T02:48:06;2.47;;;1.80;;
9914;SDS011;4996;48.746;9.174;2022-10-16T02:50:31;4.70;;;1.60;;
9914;SDS011;4996;48.746;9.174;2022-10-16T02:52:57;3.23;;;2.03;;
9914;SDS011;4996;48.746;9.174;2022-10-16T02:55:22;3.67;;;1.80;;
9914;SDS011;4996;48.746;9.174;2022-10-16T02:57:48;2.93;;;1.90;;
9914;SDS011;4996;48.746;9.174;2022-10-16T03:00:14;4.20;;;3.57;;
9914;SDS011;4996;48.746;9.174;2022-10-16T03:02:41;12.63;;;2.23;;
9914;SDS011;4996;48.746;9.174;2022-10-16T03:05:06;4.07;;;1.77;;
9914;SDS011;4996;48.746;9.174;2022-10-16T03:07:32;3.57;;;1.97;;
9914;SDS011;4996;48.746;9.174;2022-10-16T03:09:58;5.30;;;1.83;;
9914;SDS011;4996;48.746;9.174;2022-10-16T03:12:25;2.20;;;2.00;;
9914;SDS011;4996;48.746;9.174;2022-10-16T03:14:51;5.67;;;1.73;;
9914;SDS011;4996;48.746;9.174;2022-10-16T03:17:17;8.93;;;1.93;;
9914;SDS011;4996;48.746;9.174;2022-10-16T03:19:42;5.73;;;2.37;;
9914;SDS011;4996;48.746;9.174;2022-10-16T03:22:08;4.40;;;1.50;;
9914;SDS011;4996;48.746;9.174;2022-10-16T03:24:34;3.73;;;2.00;;
9914;SDS011;4996;48.746;9.174;2022-10-16T03:26:59;5.23;;;2.07;;
9914;SDS011;4996;48.746;9.174;2022-10-16T03:29:25;4.80;;;1.80;;
9914;SDS011;4996;48.746;9.174;2022-10-16T03:31:51;2.30;;;1.40;;
9914;SDS011;4996;48.746;9.174;2022-10-16T03:34:17;4.03;;;2.00;;
9914;SDS011;4996;48.746;9.174;2022-10-16T03:36:42;4.77;;;1.90;;
9914;SDS011;4996;48.746;9.174;2022-10-16T03:39:08;2.00;;;1.70;;
9914;SDS011;4996;48.746;9.174;2022-10-16T03:41:33;2.03;;;1.70;;
9914;SDS011;4996;48.746;9.174;2022-10-16T03:43:59;3.53;;;1.50;;
9914;SDS011;4996;48.746;9.174;2022-10-16T03:46:24;1.90;;;1.60;;
9914;SDS011;4996;48.746;9.174;2022-10-16T03:48:50;6.40;;;2.23;;
9914;SDS011;4996;48.746;9.174;2022-10-16T03:51:15;3.40;;;2.00;;
9914;SDS011;4996;48.746;9.174;2022-10-16T03:53:41;3.00;;;1.30;;
9914;SDS011;4996;48.746;9.174;2022-10-16T03:56:06;2.20;;;1.90;;
9914;SDS011;4996;48.746;9.174;2022-10-16T03:58:32;3.70;;;1.90;;
9914;SDS011;4996;48.746;9.174;2022-10-16T04:00:58;2.97;;;1.67;;
9914;SDS011;4996;48.746;9.174;2022-10-16T04:03:23;1.83;;;1.63;;
9914;SDS011;4996;48.746;9.174;2022-10-16T04:05:49;4.33;;;1.90;;
9914;SDS011;4996;48.746;9.174;2022-10-16T04:08:15;2.77;;;1.80;;
9914;SDS011;4996;48.746;9.174;2022-10-16T04:10:42;3.37;;;1.57;;
9914;SDS011;4996;48.746;9.174;2022-10-16T04:13:08;3.37;;;1.50;;
9914;SDS011;4996;48.746;9.174;2022-10-16T04:15:34;1.70;;;1.30;;
9914;SDS011;4996;48.746;9.174;2022-10-16T04:17:59;2.87;;;1.37;;
9914;SDS011;4996;48.746;9.174;2022-10-16T04:20:25;1.87;;;1.70;;
9914;SDS011;4996;48.746;9.174;2022-10-16T04:22:51;2.13;;;1.70;;
9914;SDS011;4996;48.746;9.174;2022-10-16T04:25:16;1.63;;;1.40;;
9914;SDS011;4996;48.746;9.174;2022-10-16T04:27:42;1.47;;;1.27;;
9914;SDS011;4996;48.746;9.174;2022-10-16T04:30:07;1.77;;;1.47;;
9914;SDS011;4996;48.746;9.174;2022-10-16T04:32:33;2.33;;;1.90;;
9914;SDS011;4996;48.746;9.174;2022-10-16T04:34:59;11.63;;;1.67;;
9914;SDS011;4996;48.746;9.174;2022-10-16T04:37:24;1.70;;;1.60;;
9914;SDS011;4996;48.746;9.174;2022-10-16T04:39:51;2.30;;;1.30;;
9914;SDS011;4996;48.746;9.174;2022-10-16T04:42:17;2.40;;;1.50;;
9914;SDS011;4996;48.746;9.174;2022-10-16T04:44:43;3.37;;;1.70;;
9914;SDS011;4996;48.746;9.174;2022-10-16T04:47:09;3.20;;;1.50;;
9914;SDS011;4996;48.746;9.174;2022-10-16T04:49:34;2.63;;;1.57;;
9914;SDS011;4996;48.746;9.174;2022-10-16T04:52:00;1.37;;;1.27;;
9914;SDS011;4996;48.746;9.174;2022-10-16T04:54:25;2.43;;;1.33;;
9914;SDS011;4996;48.746;9.174;2022-10-16T04:56:51;1.37;;;1.27;;
9914;SDS011;4996;48.746;9.174;2022-10-16T04:59:17;7.83;;;1.77;;
9914;SDS011;4996;48.746;9.174;2022-10-16T05:01:44;4.73;;;1.67;;
9914;SDS011;4996;48.746;9.174;2022-10-16T05:04:10;1.67;;;1.30;;
9914;SDS011;4996;48.746;9.174;2022-10-16T05:06:36;1.97;;;1.40;;
9914;SDS011;4996;48.746;9.174;2022-10-16T05:09:03;1.87;;;1.50;;
9914;SDS011;4996;48.746;9.174;2022-10-16T05:11:29;4.87;;;1.27;;
9914;SDS011;4996;48.746;9.174;2022-10-16T05:13:55;4.37;;;1.10;;
9914;SDS011;4996;48.746;9.174;2022-10-16T05:16:21;1.33;;;1.23;;
9914;SDS011;4996;48.746;9.174;2022-10-16T05:18:46;3.50;;;1.40;;
9914;SDS011;4996;48.746;9.174;2022-10-16T05:21:12;5.60;;;1.70;;
9914;SDS011;4996;48.746;9.174;2022-10-16T05:23:37;2.30;;;2.10;;
9914;SDS011;4996;48.746;9.174;2022-10-16T05:26:03;1.80;;;1.50;;
9914;SDS011;4996;48.746;9.174;2022-10-16T05:28:29;26.07;;;2.03;;
9914;SDS011;4996;48.746;9.174;2022-10-16T05:30:55;2.00;;;1.17;;
9914;SDS011;4996;48.746;9.174;2022-10-16T05:33:21;2.10;;;1.23;;
9914;SDS011;4996;48.746;9.174;2022-10-16T05:35:48;6.50;;;1.50;;
9914;SDS011;4996;48.746;9.174;2022-10-16T05:38:14;2.90;;;1.47;;
9914;SDS011;4996;48.746;9.174;2022-10-16T05:40:40;1.87;;;1.47;;
9914;SDS011;4996;48.746;9.174;2022-10-16T05:43:06;3.87;;;1.50;;
9914;SDS011;4996;48.746;9.174;2022-10-16T05:45:32;2.70;;;1.40;;
9914;SDS011;4996;48.746;9.174;2022-10-16T05:47:57;6.20;;;1.70;;
9914;SDS011;4996;48.746;9.174;2022-10-16T05:50:23;8.00;;;1.40;;
9914;SDS011;4996;48.746;9.174;2022-10-16T05:52:48;3.50;;;1.43;;
9914;SDS011;4996;48.746;9.174;2022-10-16T05:55:14;2.90;;;1.40;;
9914;SDS011;4996;48.746;9.174;2022-10-16T05:57:40;2.10;;;1.70;;
9914;SDS011;4996;48.746;9.174;2022-10-16T06:00:05;2.60;;;1.40;;
9914;SDS011;4996;48.746;9.174;2022-10-16T06:02:31;3.00;;;1.97;;
9914;SDS011;4996;48.746;9.174;2022-10-16T06:04:57;7.20;;;2.23;;
9914;SDS011;4996;48.746;9.174;2022-10-16T06:07:22;1.97;;;1.70;;
9914;SDS011;4996;48.746;9.174;2022-10-16T06:09:49;3.93;;;1.80;;
9914;SDS011;4996;48.746;9.174;2022-10-16T06:12:16;2.80;;;1.47;;
9914;SDS011;4996;48.746;9.174;2022-10-16T06:14:41;1.90;;;1.23;;
9914;SDS011;4996;48.746;9.174;2022-10-16T06:17:07;3.73;;;1.43;;
9914;SDS011;4996;48.746;9.174;2022-10-16T06:19:32;3.03;;;1.93;;
9914;SDS011;4996;48.746;9.174;2022-10-16T06:21:58;6.83;;;1.97;;
9914;SDS011;4996;48.746;9.174;2022-10-16T06:24:24;12.73;;;1.43;;
9914;SDS011;4996;48.746;9.174;2022-10-16T06:26:50;3.83;;;1.80;;
9914;SDS011;4996;48.746;9.174;2022-10-16T06:29:15;2.17;;;1.63;;
9914;SDS011;4996;48.746;9.174;2022-10-16T06:31:41;1.97;;;1.43;;
9914;SDS011;4996;48.746;9.174;2022-10-16T06:34:10;1.40;;;1.20;;
9914;SDS011;4996;48.746;9.174;2022-10-16T06:36:36;2.53;;;1.50;;
9914;SDS011;4996;48.746;9.174;2022-10-16T06:39:03;5.10;;;2.37;;
9914;SDS011;4996;48.746;9.174;2022-10-16T06:41:30;2.60;;;1.87;;
9914;SDS011;4996;48.746;9.174;2022-10-16T06:43:56;2.20;;;2.00;;
9914;SDS011;4996;48.746;9.174;2022-10-16T06:46:22;6.40;;;2.67;;
9914;SDS011;4996;48.746;9.174;2022-10-16T06:48:49;2.50;;;2.03;;
9914;SDS011;4996;48.746;9.174;2022-10-16T06:51:15;1.77;;;1.67;;
9914;SDS011;4996;48.746;9.174;2022-10-16T06:53:46;5.70;;;1.70;;
9914;SDS011;4996;48.746;9.174;2022-10-16T06:56:18;3.03;;;1.87;;
9914;SDS011;4996;48.746;9.174;2022-10-16T06:58:44;2.60;;;1.70;;
9914;SDS011;4996;48.746;9.174;2022-10-16T07:01:10;5.17;;;1.90;;
9914;SDS011;4996;48.746;9.174;2022-10-16T07:03:36;8.10;;;2.17;;
9914;SDS011;4996;48.746;9.174;2022-10-16T07:06:04;3.40;;;1.80;;
9914;SDS011;4996;48.746;9.174;2022-10-16T07:08:31;1.50;;;1.40;;
9914;SDS011;4996;48.746;9.174;2022-10-16T07:11:01;8.23;;;1.83;;
9914;SDS011;4996;48.746;9.174;2022-10-16T07:13:27;1.30;;;1.20;;
9914;SDS011;4996;48.746;9.174;2022-10-16T07:15:52;2.00;;;1.20;;
9914;SDS011;4996;48.746;9.174;2022-10-16T07:18:18;4.17;;;1.43;;
9914;SDS011;4996;48.746;9.174;2022-10-16T07:20:44;1.97;;;1.30;;
9914;SDS011;4996;48.746;9.174;2022-10-16T07:23:09;2.40;;;1.50;;
9914;SDS011;4996;48.746;9.174;2022-10-16T07:25:35;2.23;;;1.70;;
9914;SDS011;4996;48.746;9.174;2022-10-16T07:28:00;6.20;;;1.60;;
9914;SDS011;4996;48.746;9.174;2022-10-16T07:30:26;3.17;;;2.07;;
9914;SDS011;4996;48.746;9.174;2022-10-16T07:32:51;3.17;;;2.07;;
9914;SDS011;4996;48.746;9.174;2022-10-16T07:35:17;3.20;;;2.30;;
9914;SDS011;4996;48.746;9.174;2022-10-16T07:37:46;3.87;;;2.43;;
9914;SDS011;4996;48.746;9.174;2022-10-16T07:40:11;5.10;;;3.23;;
9914;SDS011;4996;48.746;9.174;2022-10-16T07:42:37;4.50;;;2.37;;
9914;SDS011;4996;48.746;9.174;2022-10-16T07:45:02;2.70;;;2.17;;
9914;SDS011;4996;48.746;9.174;2022-10-16T07:47:28;5.10;;;3.13;;
9914;SDS011;4996;48.746;9.174;2022-10-16T07:49:54;6.17;;;2.63;;
9914;SDS011;4996;48.746;9.174;2022-10-16T07:52:19;3.73;;;2.70;;
9914;SDS011;4996;48.746;9.174;2022-10-16T07:54:45;2.90;;;2.33;;
9914;SDS011;4996;48.746;9.174;2022-10-16T07:57:10;5.00;;;2.77;;
9914;SDS011;4996;48.746;9.174;2022-10-16T07:59:36;2.93;;;1.77;;
9914;SDS011;4996;48.746;9.174;2022-10-16T08:02:02;2.90;;;2.37;;
9914;SDS011;4996;48.746;9.174;2022-10-16T08:04:27;3.70;;;2.40;;
9914;SDS011;4996;48.746;9.174;2022-10-16T08:06:53;4.10;;;3.13;;
9914;SDS011;4996;48.746;9.174;2022-10-16T08:09:19;2.67;;;2.30;;
9914;SDS011;4996;48.746;9.174;2022-10-16T08:11:44;2.30;;;2.00;;
9914;SDS011;4996;48.746;9.174;2022-10-16T08:14:10;4.77;;;1.60;;
9914;SDS011;4996;48.746;9.174;2022-10-16T08:16:35;2.20;;;1.83;;
9914;SDS011;4996;48.746;9.174;2022-10-16T08:19:01;3.20;;;1.60;;
9914;SDS011;4996;48.746;9.174;2022-10-16T08:21:27;4.00;;;1.63;;
9914;SDS011;4996;48.746;9.174;2022-10-16T08:23:53;4.90;;;1.50;;
9914;SDS011;4996;48.746;9.174;2022-10-16T08:26:19;3.30;;;1.47;;
9914;SDS011;4996;48.746;9.174;2022-10-16T08:28:46;1.93;;;1.50;;
9914;SDS011;4996;48.746;9.174;2022-10-16T08:31:15;1.97;;;1.67;;
9914;SDS011;4996;48.746;9.174;2022-10-16T08:33:42;3.57;;;1.83;;
9914;SDS011;4996;48.746;9.174;2022-10-16T08:36:10;6.50;;;1.60;;
9914;SDS011;4996;48.746;9.174;2022-10-16T08:38:36;3.53;;;1.30;;
9914;SDS011;4996;48.746;9.174;2022-10-16T08:41:23;2.90;;;1.47;;
9914;SDS011;4996;48.746;9.174;2022-10-16T08:49:20;2.77;;;1.73;;
9914;SDS011;4996;48.746;9.174;2022-10-16T08:51:46;4.73;;;1.57;;
9914;SDS011;4996;48.746;9.174;2022-10-16T08:54:31;2.77;;;1.37;;
9914;SDS011;4996;48.746;9.174;2022-10-16T08:57:16;2.97;;;1.47;;
9914;SDS011;4996;48.746;9.174;2022-10-16T08:59:45;2.70;;;1.77;;
9914;SDS011;4996;48.746;9.174;2022-10-16T09:05:15;4.70;;;1.80;;
9914;SDS011;4996;48.746;9.174;2022-10-16T09:08:03;9.40;;;1.57;;
9914;SDS011;4996;48.746;9.174;2022-10-16T09:16:41;1.67;;;1.57;;
9914;SDS011;4996;48.746;9.174;2022-10-16T09:19:23;4.03;;;1.50;;
9914;SDS011;4996;48.746;9.174;2022-10-16T09:21:52;2.17;;;1.23;;
9914;SDS011;4996;48.746;9.174;2022-10-16T09:24:20;3.50;;;1.33;;
9914;SDS011;4996;48.746;9.174;2022-10-16T09:26:49;4.53;;;1.80;;
9914;SDS011;4996;48.746;9.174;2022-10-16T09:29:15;2.30;;;1.13;;
9914;SDS011;4996;48.746;9.174;2022-10-16T09:31:45;2.00;;;1.67;;
9914;SDS011;4996;48.746;9.174;2022-10-16T09:34:32;1.60;;;1.27;;
9914;SDS011;4996;48.746;9.174;2022-10-16T09:37:01;4.03;;;1.43;;
9914;SDS011;4996;48.746;9.174;2022-10-16T09:39:30;2.53;;;1.40;;
9914;SDS011;4996;48.746;9.174;2022-10-16T09:42:09;1.40;;;1.10;;
9914;SDS011;4996;48.746;9.174;2022-10-16T09:44:39;2.20;;;1.13;;
9914;SDS011;4996;48.746;9.174;2022-10-16T09:47:12;1.40;;;1.10;;
9914;SDS011;4996;48.746;9.174;2022-10-16T09:49:59;2.47;;;1.40;;
9914;SDS011;4996;48.746;9.174;2022-10-16T09:52:29;3.83;;;1.43;;
9914;SDS011;4996;48.746;9.174;2022-10-16T09:54:59;1.33;;;1.23;;
9914;SDS011;4996;48.746;9.174;2022-10-16T09:57:26;5.60;;;1.40;;
9914;SDS011;4996;48.746;9.174;2022-10-16T09:59:53;3.67;;;1.57;;
9914;SDS011;4996;48.746;9.174;2022-10-16T10:02:27;1.40;;;1.30;;
9914;SDS011;4996;48.746;9.174;2022-10-16T10:04:55;3.60;;;1.10;;
9914;SDS011;4996;48.746;9.174;2022-10-16T10:07:25;6.70;;;1.10;;
9914;SDS011;4996;48.746;9.174;2022-10-16T10:09:53;1.37;;;1.20;;
9914;SDS011;4996;48.746;9.174;2022-10-16T10:14:49;2.03;;;1.27;;
9914;SDS011;4996;48.746;9.174;2022-10-16T10:17:18;7.83;;;1.60;;
9914;SDS011;4996;48.746;9.174;2022-10-16T10:22:17;1.50;;;1.13;;
9914;SDS011;4996;48.746;9.174;2022-10-16T10:27:45;1.60;;;1.13;;
9914;SDS011;4996;48.746;9.174;2022-10-16T10:31:17;4.07;;;1.20;;
9914;SDS011;4996;48.746;9.174;2022-10-16T10:36:36;1.53;;;0.93;;
9914;SDS011;4996;48.746;9.174;2022-10-16T10:39:16;3.53;;;1.10;;
9914;SDS011;4996;48.746;9.174;2022-10-16T10:42:32;1.00;;;0.90;;
9914;SDS011;4996;48.746;9.174;2022-10-16T10:45:18;1.40;;;1.00;;
9914;SDS011;4996;48.746;9.174;2022-10-16T10:50:43;1.70;;;1.43;;
9914;SDS011;4996;48.746;9.174;2022-10-16T10:53:44;3.13;;;1.23;;
9914;SDS011;4996;48.746;9.174;2022-10-16T10:59:16;0.77;;;0.63;;
9914;SDS011;4996;48.746;9.174;2022-10-16T11:05:50;1.80;;;1.43;;
9914;SDS011;4996;48.746;9.174;2022-10-16T11:14:56;1.80;;;1.00;;
9914;SDS011;4996;48.746;9.174;2022-10-16T11:17:39;1.60;;;1.40;;
9914;SDS011;4996;48.746;9.174;2022-10-16T11:20:24;2.53;;;1.30;;
9914;SDS011;4996;48.746;9.174;2022-10-16T11:22:54;1.00;;;0.90;;
9914;SDS011;4996;48.746;9.174;2022-10-16T11:25:32;1.20;;;0.90;;
9914;SDS011;4996;48.746;9.174;2022-10-16T11:30:51;4.40;;;1.00;;
9914;SDS011;4996;48.746;9.174;2022-10-16T11:33:30;1.53;;;1.23;;
9914;SDS011;4996;48.746;9.174;2022-10-16T11:39:02;1.90;;;1.07;;
9914;SDS011;4996;48.746;9.174;2022-10-16T11:41:50;1.20;;;1.00;;
9914;SDS011;4996;48.746;9.174;2022-10-16T11:44:24;2.67;;;0.93;;
9914;SDS011;4996;48.746;9.174;2022-10-16T11:49:44;6.50;;;1.30;;
9914;SDS011;4996;48.746;9.174;2022-10-16T11:55:14;2.30;;;1.23;;
9914;SDS011;4996;48.746;9.174;2022-10-16T11:58:04;1.63;;;1.13;;
9914;SDS011;4996;48.746;9.174;2022-10-16T12:08:32;2.60;;;1.20;;
9914;SDS011;4996;48.746;9.174;2022-10-16T12:11:19;16.73;;;2.07;;
9914;SDS011;4996;48.746;9.174;2022-10-16T12:14:07;1.70;;;1.23;;
9914;SDS011;4996;48.746;9.174;2022-10-16T12:16:37;1.73;;;1.13;;
9914;SDS011;4996;48.746;9.174;2022-10-16T12:19:18;1.37;;;1.27;;
9914;SDS011;4996;48.746;9.174;2022-10-16T12:21:45;6.60;;;3.53;;
9914;SDS011;4996;48.746;9.174;2022-10-16T12:24:20;4.20;;;2.50;;
9914;SDS011;4996;48.746;9.174;2022-10-16T12:26:52;3.27;;;1.20;;
9914;SDS011;4996;48.746;9.174;2022-10-16T12:29:23;1.33;;;1.00;;
9914;SDS011;4996;48.746;9.174;2022-10-16T12:31:54;2.57;;;1.10;;
9914;SDS011;4996;48.746;9.174;2022-10-16T12:34:25;1.13;;;1.03;;
9914;SDS011;4996;48.746;9.174;2022-10-16T12:36:54;1.43;;;1.23;;
9914;SDS011;4996;48.746;9.174;2022-10-16T12:39:24;2.00;;;1.13;;
9914;SDS011;4996;48.746;9.174;2022-10-16T12:42:02;2.03;;;1.10;;
9914;SDS011;4996;48.746;9.174;2022-10-16T12:44:34;1.60;;;1.00;;
9914;SDS011;4996;48.746;9.174;2022-10-16T12:47:00;4.97;;;1.40;;
9914;SDS011;4996;48.746;9.174;2022-10-16T12:49:31;1.27;;;1.07;;
9914;SDS011;4996;48.746;9.174;2022-10-16T12:52:01;2.20;;;1.27;;
9914;SDS011;4996;48.746;9.174;2022-10-16T12:54:34;2.40;;;1.10;;
9914;SDS011;4996;48.746;9.174;2022-10-16T12:57:05;1.60;;;1.07;;
9914;SDS011;4996;48.746;9.174;2022-10-16T13:28:37;3.53;;;1.43;;
9914;SDS011;4996;48.746;9.174;2022-10-16T13:31:04;1.40;;;1.30;;
9914;SDS011;4996;48.746;9.174;2022-10-16T13:33:33;2.80;;;1.20;;
9914;SDS011;4996;48.746;9.174;2022-10-16T13:36:01;2.53;;;1.40;;
9914;SDS011;4996;48.746;9.174;2022-10-16T13:38:32;6.53;;;1.60;;
9914;SDS011;4996;48.746;9.174;2022-10-16T13:41:00;3.87;;;1.50;;
9914;SDS011;4996;48.746;9.174;2022-10-16T13:43:31;5.53;;;1.50;;
9914;SDS011;4996;48.746;9.174;2022-10-16T13:46:16;4.33;;;1.10;;
9914;SDS011;4996;48.746;9.174;2022-10-16T13:48:59;2.70;;;1.47;;
9914;SDS011;4996;48.746;9.174;2022-10-16T13:51:26;2.00;;;1.43;;
9914;SDS011;4996;48.746;9.174;2022-10-16T13:53:53;1.70;;;1.50;;
9914;SDS011;4996;48.746;9.174;2022-10-16T13:56:22;3.43;;;1.67;;
9914;SDS011;4996;48.746;9.174;2022-10-16T13:58:59;1.77;;;1.40;;
9914;SDS011;4996;48.746;9.174;2022-10-16T14:01:28;1.30;;;1.20;;
9914;SDS011;4996;48.746;9.174;2022-10-16T14:04:00;2.90;;;1.47;;
9914;SDS011;4996;48.746;9.174;2022-10-16T14:06:29;1.77;;;1.33;;
9914;SDS011;4996;48.746;9.174;2022-10-16T14:11:44;3.20;;;1.37;;
9914;SDS011;4996;48.746;9.174;2022-10-16T14:14:17;8.00;;;1.40;;
9914;SDS011;4996;48.746;9.174;2022-10-16T14:16:44;2.83;;;1.40;;
9914;SDS011;4996;48.746;9.174;2022-10-16T14:21:48;2.10;;;1.73;;
9914;SDS011;4996;48.746;9.174;2022-10-16T14:26:58;1.90;;;1.40;;
9914;SDS011;4996;48.746;9.174;2022-10-16T14:29:25;3.30;;;1.87;;
9914;SDS011;4996;48.746;9.174;2022-10-16T14:34:26;4.43;;;2.10;;
9914;SDS011;4996;48.746;9.174;2022-10-16T14:37:09;2.43;;;1.50;;
9914;SDS011;4996;48.746;9.174;2022-10-16T14:39:51;2.77;;;1.60;;
9914;SDS011;4996;48.746;9.174;2022-10-16T14:42:18;2.63;;;1.67;;
9914;SDS011;4996;48.746;9.174;2022-10-16T14:44:44;3.10;;;1.60;;
9914;SDS011;4996;48.746;9.174;2022-10-16T14:47:16;1.97;;;1.60;;
9914;SDS011;4996;48.746;9.174;2022-10-16T14:49:48;3.33;;;1.53;;
9914;SDS011;4996;48.746;9.174;2022-10-16T14:52:14;1.23;;;1.13;;
9914;SDS011;4996;48.746;9.174;2022-10-16T14:54:40;2.97;;;1.47;;
9914;SDS011;4996;48.746;9.174;2022-10-16T14:57:06;1.80;;;1.57;;
9914;SDS011;4996;48.746;9.174;2022-10-16T14:59:45;2.90;;;1.67;;
9914;SDS011;4996;48.746;9.174;2022-10-16T15:02:16;4.10;;;1.63;;
9914;SDS011;4996;48.746;9.174;2022-10-16T15:04:58;6.23;;;1.57;;
9914;SDS011;4996;48.746;9.174;2022-10-16T15:07:36;2.80;;;1.57;;
9914;SDS011;4996;48.746;9.174;2022-10-16T15:10:02;2.67;;;1.40;;
9914;SDS011;4996;48.746;9.174;2022-10-16T15:12:28;2.70;;;1.80;;
9914;SDS011;4996;48.746;9.174;2022-10-16T15:14:53;2.33;;;1.67;;
9914;SDS011;4996;48.746;9.174;2022-10-16T15:17:19;2.13;;;1.90;;
9914;SDS011;4996;48.746;9.174;2022-10-16T15:19:44;1.43;;;1.10;;
9914;SDS011;4996;48.746;9.174;2022-10-16T15:22:13;2.47;;;1.47;;
9914;SDS011;4996;48.746;9.174;2022-10-16T15:24:38;7.30;;;1.60;;
9914;SDS011;4996;48.746;9.174;2022-10-16T15:27:04;2.10;;;1.50;;
9914;SDS011;4996;48.746;9.174;2022-10-16T15:29:30;2.80;;;1.67;;
9914;SDS011;4996;48.746;9.174;2022-10-16T15:31:55;6.00;;;1.90;;
9914;SDS011;4996;48.746;9.174;2022-10-16T15:34:21;3.53;;;1.50;;
9914;SDS011;4996;48.746;9.174;2022-10-16T15:36:47;2.37;;;1.17;;
9914;SDS011;4996;48.746;9.174;2022-10-16T15:39:16;1.70;;;1.30;;
9914;SDS011;4996;48.746;9.174;2022-10-16T15:41:44;2.40;;;1.30;;
9914;SDS011;4996;48.746;9.174;2022-10-16T15:44:15;1.67;;;1.50;;
9914;SDS011;4996;48.746;9.174;2022-10-16T15:46:41;2.43;;;1.60;;
9914;SDS011;4996;48.746;9.174;2022-10-16T15:49:07;2.53;;;1.60;;
9914;SDS011;4996;48.746;9.174;2022-10-16T15:51:34;2.00;;;1.30;;
9914;SDS011;4996;48.746;9.174;2022-10-16T15:54:03;3.07;;;1.60;;
9914;SDS011;4996;48.746;9.174;2022-10-16T15:56:29;3.23;;;1.77;;
9914;SDS011;4996;48.746;9.174;2022-10-16T15:58:57;2.10;;;1.70;;
9914;SDS011;4996;48.746;9.174;2022-10-16T16:01:23;1.90;;;1.30;;
9914;SDS011;4996;48.746;9.174;2022-10-16T16:03:52;1.63;;;1.53;;
9914;SDS011;4996;48.746;9.174;2022-10-16T16:06:18;2.50;;;1.53;;
9914;SDS011;4996;48.746;9.174;2022-10-16T16:08:44;2.97;;;1.40;;
9914;SDS011;4996;48.746;9.174;2022-10-16T16:11:10;3.03;;;2.20;;
9914;SDS011;4996;48.746;9.174;2022-10-16T16:13:38;6.20;;;2.83;;
9914;SDS011;4996;48.746;9.174;2022-10-16T16:16:05;4.67;;;2.07;;
9914;SDS011;4996;48.746;9.174;2022-10-16T16:18:36;5.70;;;2.00;;
9914;SDS011;4996;48.746;9.174;2022-10-16T16:21:02;2.57;;;1.87;;
9914;SDS011;4996;48.746;9.174;2022-10-16T16:23:29;3.30;;;1.90;;
9914;SDS011;4996;48.746;9.174;2022-10-16T16:26:05;6.20;;;1.80;;
9914;SDS011;4996;48.746;9.174;2022-10-16T16:28:31;5.93;;;2.57;;
9914;SDS011;4996;48.746;9.174;2022-10-16T16:30:56;3.03;;;2.00;;
9914;SDS011;4996;48.746;9.174;2022-10-16T16:33:22;3.13;;;1.50;;
9914;SDS011;4996;48.746;9.174;2022-10-16T16:35:48;4.03;;;1.70;;
9914;SDS011;4996;48.746;9.174;2022-10-16T16:38:14;6.90;;;1.80;;
9914;SDS011;4996;48.746;9.174;2022-10-16T16:40:40;2.63;;;2.17;;
9914;SDS011;4996;48.746;9.174;2022-10-16T16:43:05;11.60;;;2.00;;
9914;SDS011;4996;48.746;9.174;2022-10-16T16:45:34;2.33;;;2.13;;
9914;SDS011;4996;48.746;9.174;2022-10-16T16:48:00;2.23;;;1.80;;
9914;SDS011;4996;48.746;9.174;2022-10-16T16:50:26;8.33;;;2.10;;
9914;SDS011;4996;48.746;9.174;2022-10-16T16:52:51;2.03;;;1.83;;
9914;SDS011;4996;48.746;9.174;2022-10-16T16:55:17;4.47;;;2.00;;
9914;SDS011;4996;48.746;9.174;2022-10-16T16:57:42;5.37;;;2.20;;
9914;SDS011;4996;48.746;9.174;2022-10-16T17:00:08;4.17;;;2.43;;
9914;SDS011;4996;48.746;9.174;2022-10-16T17:02:34;7.60;;;2.43;;
9914;SDS011;4996;48.746;9.174;2022-10-16T17:04:59;4.70;;;2.60;;
9914;SDS011;4996;48.746;9.174;2022-10-16T17:07:25;18.67;;;2.77;;
9914;SDS011;4996;48.746;9.174;2022-10-16T17:09:51;6.97;;;2.80;;
9914;SDS011;4996;48.746;9.174;2022-10-16T17:12:17;6.07;;;4.37;;
9914;SDS011;4996;48.746;9.174;2022-10-16T17:14:42;4.80;;;3.60;;
9914;SDS011;4996;48.746;9.174;2022-10-16T17:17:08;3.20;;;2.53;;
9914;SDS011;4996;48.746;9.174;2022-10-16T17:19:34;5.00;;;2.87;;
9914;SDS011;4996;48.746;9.174;2022-10-16T17:21:59;4.67;;;3.67;;
9914;SDS011;4996;48.746;9.174;2022-10-16T17:24:25;3.93;;;2.50;;